Time;durP1;ratioP1;P1;durP2;ratioP2;P2;SDS_P1;SDS_P2;PMS_P1;PMS_P2;Temp;Humidity;BMP_temperature;BMP_pressure;BME280_temperature;BME280_humidity;BME280_pressure;Samples;Min_cycle;Max_cycle;Signal;HPM_P1;HPM_P2
2023/08/30 00:00:17;;;;;;;28.58;25.92;;;13.70;99.90;;;;;;6121381;23;20445;-87
2023/08/30 00:02:46;;;;;;;29.08;26.38;;;13.20;99.90;;;;;;6123898;23;20379;-87
2023/08/30 00:05:11;;;;;;;24.77;22.67;;;13.20;99.90;;;;;;6122331;23;20385;-87
2023/08/30 00:07:37;;;;;;;29.00;26.45;;;13.50;99.90;;;;;;6123318;23;20426;-87
2023/08/30 00:10:03;;;;;;;29.97;27.27;;;13.30;99.90;;;;;;6123708;23;20372;-87
2023/08/30 00:12:29;;;;;;;32.38;29.27;;;13.40;99.90;;;;;;6121802;23;20378;-87
2023/08/30 00:14:56;;;;;;;30.45;27.58;;;13.80;99.90;;;;;;6123528;23;20855;-87
2023/08/30 00:17:22;;;;;;;31.00;28.00;;;13.70;99.90;;;;;;6121543;23;20390;-87
2023/08/30 00:19:48;;;;;;;31.05;28.15;;;14.00;99.90;;;;;;6123919;23;20887;-87
2023/08/30 00:22:14;;;;;;;34.30;31.00;;;13.10;99.90;;;;;;6121929;23;20767;-87
2023/08/30 00:24:40;;;;;;;31.70;28.80;;;13.60;99.90;;;;;;6123699;23;20402;-88
2023/08/30 00:27:06;;;;;;;32.37;29.30;;;13.90;99.90;;;;;;6122864;23;20689;-87
2023/08/30 00:29:31;;;;;;;29.45;26.80;;;14.00;99.90;;;;;;6122115;23;20708;-87
2023/08/30 00:31:57;;;;;;;29.83;27.13;;;13.40;99.90;;;;;;6123472;23;20874;-87
2023/08/30 00:34:23;;;;;;;29.63;27.00;;;13.90;99.90;;;;;;6121254;23;20379;-88
2023/08/30 00:36:49;;;;;;;29.40;26.53;;;14.00;99.90;;;;;;6123733;23;20367;-88
2023/08/30 00:39:14;;;;;;;27.92;25.33;;;13.60;99.90;;;;;;6096914;23;20375;-87
2023/08/30 00:41:41;;;;;;;28.20;25.63;;;13.70;99.90;;;;;;6122885;23;20427;-87
2023/08/30 00:44:06;;;;;;;31.88;28.73;;;14.00;99.90;;;;;;6097417;23;20764;-87
2023/08/30 00:46:33;;;;;;;27.83;25.33;;;13.90;99.90;;;;;;6122556;23;20445;-88
2023/08/30 00:49:00;;;;;;;27.40;25.10;;;14.20;99.90;;;;;;6098613;23;20509;-87
2023/08/30 00:51:27;;;;;;;28.43;25.83;;;14.50;99.90;;;;;;6121730;23;21013;-88
2023/08/30 00:53:54;;;;;;;28.05;25.48;;;14.00;99.90;;;;;;6098835;23;20430;-88
2023/08/30 00:56:20;;;;;;;29.08;26.30;;;14.00;99.90;;;;;;6120866;23;21283;-87
2023/08/30 00:58:48;;;;;;;27.20;24.90;;;14.20;99.90;;;;;;6123358;23;20383;-87
2023/08/30 01:01:16;;;;;;;27.83;25.23;;;13.80;99.90;;;;;;6120986;23;20860;-87
2023/08/30 01:03:41;;;;;;;29.23;26.43;;;14.20;99.90;;;;;;6098474;23;20378;-87
2023/08/30 01:06:07;;;;;;;29.95;27.15;;;13.80;99.90;;;;;;6122438;23;20468;-87
2023/08/30 01:08:35;;;;;;;27.55;25.15;;;14.10;99.90;;;;;;6121814;23;20481;-87
2023/08/30 01:11:07;;;;;;;28.23;25.38;;;13.80;99.90;;;;;;6098893;23;20375;-88
2023/08/30 01:13:42;;;;;;;27.17;24.67;;;13.80;99.90;;;;;;6121275;23;20883;-87
2023/08/30 01:16:08;;;;;;;25.27;22.92;;;14.10;99.90;;;;;;6123248;23;20411;-88
2023/08/30 01:18:37;;;;;;;25.75;23.40;;;13.70;99.90;;;;;;6096717;23;20375;-87
2023/08/30 01:21:05;;;;;;;26.35;23.95;;;14.10;99.90;;;;;;6122691;23;20375;-88
2023/08/30 01:23:54;;;;;;;27.43;24.87;;;14.10;99.90;;;;;;6122437;23;20654;-87
2023/08/30 01:26:48;;;;;;;26.60;24.13;;;13.70;99.90;;;;;;6120548;23;20469;-88
2023/08/30 01:29:16;;;;;;;26.63;23.97;;;13.70;99.90;;;;;;6122940;23;20728;-88
2023/08/30 01:31:43;;;;;;;26.17;23.73;;;13.60;99.90;;;;;;6121099;23;20467;-87
2023/08/30 01:34:09;;;;;;;25.07;22.83;;;13.60;99.90;;;;;;6098179;23;20747;-87
2023/08/30 01:36:36;;;;;;;25.80;23.40;;;13.70;99.90;;;;;;6122431;23;20403;-88
2023/08/30 01:39:02;;;;;;;25.85;23.40;;;13.50;99.90;;;;;;6120922;23;20422;-88
2023/08/30 01:41:29;;;;;;;25.02;22.63;;;13.40;99.90;;;;;;6122967;23;20740;-87
2023/08/30 01:43:56;;;;;;;23.38;21.17;;;13.40;99.90;;;;;;6096582;23;20379;-87
2023/08/30 01:46:23;;;;;;;24.07;21.77;;;13.30;99.90;;;;;;6122618;23;20414;-87
2023/08/30 01:48:50;;;;;;;26.30;23.77;;;13.20;99.90;;;;;;6120904;23;20429;-87
2023/08/30 01:51:16;;;;;;;22.80;20.80;;;13.50;99.90;;;;;;6098179;23;20383;-87
2023/08/30 01:53:46;;;;;;;23.88;21.50;;;13.00;99.90;;;;;;6122413;23;20406;-87
2023/08/30 01:56:11;;;;;;;22.88;20.77;;;13.00;99.90;;;;;;6121485;23;20914;-87
2023/08/30 01:58:37;;;;;;;23.87;21.50;;;12.90;99.90;;;;;;6098589;23;20375;-87
2023/08/30 02:01:02;;;;;;;24.30;22.10;;;12.90;99.90;;;;;;6121033;23;20379;-87
2023/08/30 02:03:28;;;;;;;22.47;20.27;;;12.80;99.90;;;;;;6098415;23;20383;-87
2023/08/30 02:06:11;;;;;;;24.45;22.25;;;12.80;99.90;;;;;;6096283;23;20386;-87
2023/08/30 02:09:01;;;;;;;22.90;20.75;;;12.70;99.90;;;;;;6098104;23;20383;-87
2023/08/30 02:11:29;;;;;;;22.98;20.80;;;12.70;99.90;;;;;;6122835;23;20776;-87
2023/08/30 02:13:58;;;;;;;23.15;21.10;;;12.60;99.90;;;;;;6120241;23;20394;-87
2023/08/30 02:16:26;;;;;;;25.15;22.70;;;12.50;99.90;;;;;;6122701;23;20379;-87
2023/08/30 02:18:52;;;;;;;22.77;20.57;;;12.50;99.90;;;;;;6120367;23;20450;-87
2023/08/30 02:21:18;;;;;;;23.53;21.23;;;12.40;99.90;;;;;;6098280;23;20403;-87
2023/08/30 02:23:44;;;;;;;22.98;20.77;;;12.40;99.90;;;;;;6121159;23;20454;-87
2023/08/30 02:26:10;;;;;;;21.87;19.87;;;12.40;99.90;;;;;;6121686;23;20884;-87
2023/08/30 02:28:37;;;;;;;24.40;22.10;;;12.30;99.90;;;;;;6098183;23;20434;-86
2023/08/30 02:31:03;;;;;;;21.65;19.55;;;12.20;99.90;;;;;;6120673;23;20375;-86
2023/08/30 02:33:29;;;;;;;26.33;23.53;;;12.20;99.90;;;;;;6098530;23;20704;-87
2023/08/30 02:35:55;;;;;;;22.40;20.27;;;12.10;99.90;;;;;;6120135;23;20462;-86
2023/08/30 02:38:20;;;;;;;23.77;21.33;;;12.10;99.90;;;;;;6122568;23;20367;-87
2023/08/30 02:40:46;;;;;;;21.27;19.25;;;12.00;99.90;;;;;;6120358;23;20399;-87
2023/08/30 02:43:11;;;;;;;23.17;20.83;;;12.00;99.90;;;;;;6097545;23;20390;-87
2023/08/30 02:45:37;;;;;;;23.90;21.55;;;12.00;99.90;;;;;;6097447;23;20375;-86
2023/08/30 02:48:03;;;;;;;24.97;22.47;;;11.90;99.90;;;;;;6121035;23;20395;-87
2023/08/30 02:50:28;;;;;;;23.17;20.98;;;11.90;99.90;;;;;;6122313;23;20483;-87
2023/08/30 02:52:54;;;;;;;24.50;22.13;;;11.90;99.90;;;;;;6095501;23;20375;-87
2023/08/30 02:55:20;;;;;;;25.80;23.17;;;11.80;99.90;;;;;;6122439;23;20410;-87
2023/08/30 02:57:46;;;;;;;26.48;23.42;;;11.80;99.90;;;;;;6119668;23;20929;-87
2023/08/30 03:00:12;;;;;;;26.65;23.90;;;11.80;99.90;;;;;;6122432;23;20736;-87
2023/08/30 03:02:38;;;;;;;24.17;21.88;;;11.80;99.90;;;;;;6120783;23;20393;-86
2023/08/30 03:05:04;;;;;;;23.10;20.90;;;11.80;99.90;;;;;;6121713;23;20923;-87
2023/08/30 03:07:30;;;;;;;27.17;24.38;;;11.70;99.90;;;;;;6122013;23;20469;-86
2023/08/30 03:09:55;;;;;;;26.65;23.95;;;11.70;99.90;;;;;;6096070;23;20414;-87
2023/08/30 03:12:21;;;;;;;26.70;24.00;;;11.80;99.90;;;;;;6122215;23;20390;-87
2023/08/30 03:14:47;;;;;;;23.67;21.38;;;11.80;99.90;;;;;;6119993;23;20371;-87
2023/08/30 03:17:12;;;;;;;26.05;23.35;;;11.80;99.90;;;;;;6122249;23;20462;-86
2023/08/30 03:19:38;;;;;;;26.33;23.60;;;11.80;99.90;;;;;;6120362;23;20406;-86
2023/08/30 03:22:03;;;;;;;26.53;23.80;;;11.90;99.90;;;;;;6122268;23;20378;-86
2023/08/30 03:24:29;;;;;;;26.15;23.65;;;12.00;99.90;;;;;;6121595;23;20421;-87
2023/08/30 03:26:55;;;;;;;27.37;24.57;;;12.00;99.90;;;;;;6120806;23;20458;-87
2023/08/30 03:29:20;;;;;;;24.95;22.42;;;12.10;99.90;;;;;;6122112;23;20414;-87
2023/08/30 03:31:46;;;;;;;25.83;23.10;;;12.40;99.90;;;;;;6095502;23;20494;-87
2023/08/30 03:34:11;;;;;;;24.63;22.23;;;12.20;99.90;;;;;;6121905;23;20403;-86
2023/08/30 03:36:38;;;;;;;28.23;25.42;;;12.30;99.90;;;;;;6120210;23;20490;-87
2023/08/30 03:39:03;;;;;;;26.15;23.52;;;12.30;99.90;;;;;;6122351;23;20454;-87
2023/08/30 03:41:29;;;;;;;25.47;22.90;;;12.40;99.90;;;;;;6120180;23;20478;-87
2023/08/30 03:43:55;;;;;;;25.85;23.25;;;12.40;99.90;;;;;;6121754;23;20378;-87
2023/08/30 03:46:20;;;;;;;25.35;22.75;;;12.50;99.90;;;;;;6097622;23;20478;-87
2023/08/30 03:48:46;;;;;;;24.80;22.30;;;12.60;99.90;;;;;;6096039;23;20418;-87
2023/08/30 03:51:12;;;;;;;24.50;22.02;;;12.60;99.90;;;;;;6121921;23;20375;-87
2023/08/30 03:53:38;;;;;;;24.63;22.23;;;12.60;99.90;;;;;;6119860;23;20434;-87
2023/08/30 03:56:04;;;;;;;25.20;22.58;;;12.70;99.90;;;;;;6097688;23;20782;-86
2023/08/30 03:58:29;;;;;;;22.27;20.07;;;12.70;99.90;;;;;;6095566;23;20402;-87
2023/08/30 04:00:56;;;;;;;24.65;22.25;;;12.80;99.90;;;;;;6121939;23;20371;-88
2023/08/30 04:03:22;;;;;;;21.88;19.77;;;12.80;99.90;;;;;;6120888;23;20375;-87
2023/08/30 04:05:47;;;;;;;22.67;20.57;;;12.80;99.90;;;;;;6120837;23;20926;-87
2023/08/30 04:08:13;;;;;;;21.93;19.83;;;12.90;99.90;;;;;;6097704;23;20481;-87
2023/08/30 04:10:40;;;;;;;23.30;21.02;;;12.90;99.90;;;;;;6121883;23;20951;-88
2023/08/30 04:13:08;;;;;;;23.38;20.95;;;12.90;99.90;;;;;;6123585;23;20383;-87
2023/08/30 04:15:38;;;;;;;25.50;23.00;;;13.00;99.90;;;;;;6096997;23;20378;-87
2023/08/30 04:18:05;;;;;;;25.90;23.05;;;13.00;99.90;;;;;;6124030;23;20808;-88
2023/08/30 04:20:32;;;;;;;25.90;23.20;;;13.00;99.90;;;;;;6121928;23;20693;-87
2023/08/30 04:22:59;;;;;;;26.60;23.80;;;13.00;99.90;;;;;;6122878;23;20389;-88
2023/08/30 04:25:25;;;;;;;27.15;24.30;;;13.00;99.90;;;;;;6123869;23;20378;-87
2023/08/30 04:27:51;;;;;;;28.83;25.43;;;13.00;99.90;;;;;;6120794;23;20407;-87
2023/08/30 04:30:17;;;;;;;28.38;25.45;;;13.00;99.90;;;;;;6099137;23;20468;-88
2023/08/30 04:32:42;;;;;;;29.08;25.98;;;13.00;99.90;;;;;;6121352;23;20859;-88
2023/08/30 04:35:08;;;;;;;29.40;26.23;;;13.00;99.90;;;;;;6123807;23;20390;-88
2023/08/30 04:37:34;;;;;;;26.08;23.45;;;13.00;99.90;;;;;;6097163;23;20382;-88
2023/08/30 04:40:00;;;;;;;25.27;22.57;;;13.00;99.90;;;;;;6098799;23;20391;-88
2023/08/30 04:42:25;;;;;;;24.60;22.10;;;13.30;99.90;;;;;;6098056;23;20379;-87
2023/08/30 04:44:54;;;;;;;27.48;24.65;;;13.10;99.90;;;;;;6122061;23;20454;-88
2023/08/30 04:47:20;;;;;;;23.52;20.98;;;13.10;99.90;;;;;;6123375;23;20419;-87
2023/08/30 04:49:53;;;;;;;23.73;21.42;;;13.10;99.90;;;;;;6095166;23;20379;-88
2023/08/30 04:52:18;;;;;;;22.65;20.42;;;13.10;99.90;;;;;;6098866;23;20379;-87
2023/08/30 04:54:48;;;;;;;22.25;20.05;;;13.10;99.90;;;;;;6096810;23;20409;-88
2023/08/30 04:57:16;;;;;;;23.25;20.85;;;13.20;99.90;;;;;;6123455;23;20895;-88
2023/08/30 04:59:42;;;;;;;23.48;21.17;;;13.20;99.90;;;;;;6098136;23;20382;-88
2023/08/30 05:02:08;;;;;;;22.10;19.92;;;13.20;99.90;;;;;;6122045;23;20390;-89
2023/08/30 05:04:33;;;;;;;22.55;20.25;;;13.30;99.90;;;;;;6098404;23;20386;-88
2023/08/30 05:06:59;;;;;;;22.97;20.67;;;13.30;99.90;;;;;;6096346;23;20399;-89
2023/08/30 05:09:24;;;;;;;22.38;20.02;;;13.30;99.90;;;;;;6123174;23;20387;-88
2023/08/30 05:11:53;;;;;;;20.83;18.93;;;13.30;99.90;;;;;;6120737;23;20694;-88
2023/08/30 05:14:20;;;;;;;21.40;19.23;;;13.40;99.90;;;;;;6098202;23;20411;-88
2023/08/30 05:16:46;;;;;;;22.67;20.40;;;13.40;99.90;;;;;;6121130;23;20756;-88
2023/08/30 05:19:11;;;;;;;20.00;18.10;;;13.40;99.90;;;;;;6122304;23;20805;-88
2023/08/30 05:21:37;;;;;;;21.57;19.37;;;13.50;99.90;;;;;;6097077;23;20375;-88
2023/08/30 05:24:05;;;;;;;20.65;18.55;;;13.50;99.90;;;;;;6121041;23;20366;-88
2023/08/30 05:26:31;;;;;;;21.00;18.98;;;13.60;99.90;;;;;;6122232;23;20492;-88
2023/08/30 05:28:56;;;;;;;20.63;18.43;;;13.60;99.90;;;;;;6096173;23;20382;-88
2023/08/30 05:31:22;;;;;;;20.50;18.43;;;14.20;99.90;;;;;;6098459;23;20367;-88
2023/08/30 05:33:48;;;;;;;20.02;18.02;;;13.70;99.90;;;;;;6121429;23;20418;-88
2023/08/30 05:36:13;;;;;;;20.17;18.23;;;14.00;99.90;;;;;;6098644;23;20911;-89
2023/08/30 05:38:39;;;;;;;19.92;17.92;;;13.50;99.90;;;;;;6121924;23;20375;-88
2023/08/30 05:41:05;;;;;;;18.87;16.87;;;14.00;99.90;;;;;;6097153;23;20399;-88
2023/08/30 05:43:31;;;;;;;19.43;17.50;;;14.20;99.90;;;;;;6122771;23;20403;-89
2023/08/30 05:46:01;;;;;;;19.83;17.95;;;14.20;99.90;;;;;;6120608;23;20371;-89
2023/08/30 05:48:27;;;;;;;19.40;17.50;;;14.30;99.90;;;;;;6123014;23;20718;-87
2023/08/30 05:50:53;;;;;;;17.47;15.53;;;14.10;99.90;;;;;;6120541;23;20403;-87
2023/08/30 05:53:18;;;;;;;18.98;17.05;;;14.20;99.90;;;;;;6098132;23;20414;-89
2023/08/30 05:55:44;;;;;;;18.00;16.20;;;14.00;99.90;;;;;;6121561;23;20485;-90
2023/08/30 05:58:10;;;;;;;17.43;15.63;;;14.40;99.90;;;;;;6122289;23;20371;-90
2023/08/30 06:00:35;;;;;;;17.85;16.13;;;14.40;99.90;;;;;;6097884;23;20692;-88
2023/08/30 06:03:02;;;;;;;17.23;15.63;;;14.50;99.90;;;;;;6120897;23;20438;-89
2023/08/30 06:05:28;;;;;;;17.40;15.70;;;15.20;99.90;;;;;;6098117;23;20387;-90
2023/08/30 06:07:54;;;;;;;16.38;14.68;;;14.40;99.90;;;;;;6095928;23;20402;-89
2023/08/30 06:10:20;;;;;;;17.67;15.98;;;14.50;99.90;;;;;;6098056;23;20529;-89
2023/08/30 06:12:45;;;;;;;16.87;15.17;;;14.60;99.90;;;;;;6120526;23;20697;-89
2023/08/30 06:15:11;;;;;;;16.80;15.10;;;14.70;99.90;;;;;;6097926;23;20374;-89
2023/08/30 06:17:37;;;;;;;16.88;15.18;;;14.90;99.90;;;;;;6122179;23;20449;-90
2023/08/30 06:20:03;;;;;;;17.73;16.00;;;14.60;99.90;;;;;;6097552;23;20379;-90
2023/08/30 06:22:28;;;;;;;17.35;15.55;;;14.30;99.90;;;;;;6122474;23;20382;-88
2023/08/30 06:24:54;;;;;;;16.20;14.50;;;14.60;99.90;;;;;;6120371;23;20375;-88
2023/08/30 06:27:20;;;;;;;15.88;14.27;;;14.50;99.90;;;;;;6097856;23;20391;-89
2023/08/30 06:29:46;;;;;;;15.17;13.67;;;14.60;99.90;;;;;;6120423;23;20755;-90
2023/08/30 06:32:11;;;;;;;15.83;14.10;;;14.80;99.90;;;;;;6097971;23;20836;-88
2023/08/30 06:34:37;;;;;;;15.60;13.93;;;14.40;99.90;;;;;;6120996;23;20379;-89
2023/08/30 06:37:03;;;;;;;14.97;13.47;;;14.70;99.90;;;;;;6097409;23;20383;-88
2023/08/30 06:39:36;;;;;;;15.20;13.23;;;14.50;99.90;;;;;;6097132;23;20836;-88
2023/08/30 06:42:03;;;;;;;14.82;13.23;;;14.80;99.90;;;;;;6095664;23;20383;-88
2023/08/30 06:44:29;;;;;;;12.73;11.43;;;14.60;99.90;;;;;;6122241;23;20382;-88
2023/08/30 06:46:56;;;;;;;14.33;12.93;;;14.70;99.90;;;;;;6120039;23;20450;-89
2023/08/30 06:49:22;;;;;;;13.30;11.80;;;14.80;99.90;;;;;;6122542;23;20402;-89
2023/08/30 06:51:47;;;;;;;12.75;11.50;;;14.90;99.90;;;;;;6095781;23;20446;-89
2023/08/30 06:54:13;;;;;;;11.47;10.37;;;15.20;99.90;;;;;;6122327;23;20422;-88
2023/08/30 06:56:38;;;;;;;11.30;10.20;;;15.40;99.90;;;;;;6121738;23;20386;-88
2023/08/30 06:59:04;;;;;;;11.67;10.47;;;16.10;99.90;;;;;;6120826;23;20383;-89
2023/08/30 07:01:30;;;;;;;11.60;10.50;;;15.30;99.90;;;;;;6122103;23;20382;-88
2023/08/30 07:03:55;;;;;;;11.53;10.33;;;15.80;99.90;;;;;;6120167;23;20382;-89
2023/08/30 07:06:21;;;;;;;11.73;10.10;;;15.50;99.90;;;;;;6122059;23;20478;-88
2023/08/30 07:08:47;;;;;;;10.80;9.67;;;15.20;99.90;;;;;;6119829;23;20367;-90
2023/08/30 07:11:12;;;;;;;10.80;9.70;;;16.10;99.90;;;;;;6122112;23;20855;-89
2023/08/30 07:13:38;;;;;;;11.40;10.02;;;16.00;99.90;;;;;;6120760;23;20430;-89
2023/08/30 07:16:04;;;;;;;11.33;10.23;;;16.30;99.90;;;;;;6097353;23;20380;-89
2023/08/30 07:18:29;;;;;;;12.65;11.00;;;16.10;99.90;;;;;;6097725;23;20894;-88
2023/08/30 07:20:55;;;;;;;11.43;10.23;;;16.50;99.90;;;;;;6120444;23;20744;-89
2023/08/30 07:23:20;;;;;;;11.55;10.35;;;16.60;99.90;;;;;;6122010;23;20451;-89
2023/08/30 07:25:46;;;;;;;11.77;9.63;;;17.10;99.90;;;;;;6119997;23;20815;-90
2023/08/30 07:28:12;;;;;;;12.32;9.45;;;17.30;99.90;;;;;;6097872;23;20398;-90
2023/08/30 07:30:37;;;;;;;10.23;9.10;;;17.50;99.90;;;;;;6120106;23;20379;-90
2023/08/30 07:33:04;;;;;;;9.55;8.45;;;17.60;99.90;;;;;;6097574;23;20717;-90
2023/08/30 07:35:30;;;;;;;10.00;8.35;;;17.70;99.90;;;;;;6096874;23;20565;-89
2023/08/30 07:37:56;;;;;;;10.13;7.80;;;17.90;99.90;;;;;;6096116;23;20374;-89
2023/08/30 07:40:26;;;;;;;8.87;7.57;;;18.10;99.90;;;;;;6121811;23;20444;-89
2023/08/30 07:42:52;;;;;;;7.95;7.15;;;17.70;99.90;;;;;;6120070;23;20379;-90
2023/08/30 07:45:18;;;;;;;8.57;7.28;;;18.30;99.90;;;;;;6099745;23;20398;-88
2023/08/30 07:47:43;;;;;;;9.55;7.93;;;17.70;99.90;;;;;;6121492;23;20410;-90
2023/08/30 07:50:09;;;;;;;9.30;8.40;;;18.20;99.90;;;;;;6123970;23;20371;-90
2023/08/30 07:52:35;;;;;;;8.82;7.88;;;18.00;99.90;;;;;;6122338;23;20391;-89
2023/08/30 07:55:01;;;;;;;9.07;7.80;;;17.80;99.90;;;;;;6098682;23;20386;-89
2023/08/30 07:57:27;;;;;;;9.10;7.43;;;17.50;99.90;;;;;;6099505;23;20405;-90
2023/08/30 07:59:53;;;;;;;10.18;8.00;;;17.60;99.90;;;;;;6097382;23;20371;-89
2023/08/30 08:02:18;;;;;;;8.52;7.40;;;17.70;99.90;;;;;;6099382;23;20417;-90
2023/08/30 08:04:44;;;;;;;8.30;7.23;;;18.00;99.90;;;;;;6121799;23;20371;-89
2023/08/30 08:07:09;;;;;;;8.80;7.33;;;17.70;99.90;;;;;;6123961;23;20395;-89
2023/08/30 08:09:35;;;;;;;9.52;7.43;;;17.60;99.90;;;;;;6121707;23;20410;-89
2023/08/30 08:12:01;;;;;;;7.73;6.97;;;17.60;99.90;;;;;;6123981;23;20375;-89
2023/08/30 08:14:27;;;;;;;8.30;6.53;;;18.00;99.90;;;;;;6123298;23;20724;-89
2023/08/30 08:16:52;;;;;;;8.00;6.60;;;17.80;99.90;;;;;;6122636;23;20411;-90
2023/08/30 08:19:19;;;;;;;9.32;7.15;;;17.80;99.90;;;;;;6099265;23;20410;-89
2023/08/30 08:21:45;;;;;;;7.68;6.88;;;17.90;99.90;;;;;;6121296;23;20473;-89
2023/08/30 08:24:11;;;;;;;10.05;7.22;;;18.30;99.90;;;;;;6123647;23;20413;-89
2023/08/30 08:26:36;;;;;;;7.93;7.10;;;18.10;99.90;;;;;;6121437;23;20403;-89
2023/08/30 08:29:03;;;;;;;8.45;7.55;;;18.20;99.90;;;;;;6099081;23;20410;-89
2023/08/30 08:31:28;;;;;;;9.55;8.18;;;18.20;99.90;;;;;;6122028;23;20395;-89
2023/08/30 08:34:11;;;;;;;9.27;8.10;;;18.20;99.90;;;;;;6123118;23;20425;-90
2023/08/30 08:36:39;;;;;;;9.32;8.20;;;17.80;99.90;;;;;;6123215;23;20383;-88
2023/08/30 08:39:05;;;;;;;10.18;8.50;;;18.10;99.90;;;;;;6121457;23;20394;-89
2023/08/30 08:41:42;;;;;;;10.10;8.63;;;17.60;99.90;;;;;;6123262;23;20430;-88
2023/08/30 08:44:08;;;;;;;12.50;9.43;;;18.10;99.90;;;;;;6096679;23;20379;-89
2023/08/30 08:46:38;;;;;;;9.82;8.68;;;17.90;99.90;;;;;;6099053;23;20831;-88
2023/08/30 08:49:15;;;;;;;9.95;8.65;;;17.60;99.90;;;;;;6121973;23;20375;-89
2023/08/30 08:51:43;;;;;;;11.10;9.18;;;17.60;99.90;;;;;;6097679;23;20934;-89
2023/08/30 08:54:10;;;;;;;10.52;9.30;;;17.50;99.90;;;;;;6123140;23;20800;-89
2023/08/30 08:56:37;;;;;;;10.63;9.37;;;17.80;99.90;;;;;;6121255;23;20510;-89
2023/08/30 08:59:03;;;;;;;10.25;8.90;;;18.00;99.90;;;;;;6098908;23;20366;-89
2023/08/30 09:01:29;;;;;;;9.50;8.57;;;17.60;99.90;;;;;;6120844;23;20367;-89
2023/08/30 09:03:55;;;;;;;11.70;9.43;;;17.70;99.90;;;;;;6122900;23;20898;-89
2023/08/30 09:06:23;;;;;;;10.55;9.45;;;17.70;99.90;;;;;;6122047;23;20375;-89
2023/08/30 09:08:49;;;;;;;10.98;9.15;;;18.00;99.90;;;;;;6122120;23;21172;-89
2023/08/30 09:11:14;;;;;;;10.60;9.55;;;17.50;99.90;;;;;;6123234;23;20425;-89
2023/08/30 09:13:43;;;;;;;10.97;9.63;;;18.10;99.90;;;;;;6096931;23;20371;-89
2023/08/30 09:16:13;;;;;;;10.77;9.27;;;18.10;99.90;;;;;;6098452;23;20381;-90
2023/08/30 09:18:40;;;;;;;10.98;9.88;;;18.50;99.90;;;;;;6121331;23;20802;-88
2023/08/30 09:21:10;;;;;;;10.32;9.23;;;18.50;99.90;;;;;;6123051;23;20714;-89
2023/08/30 09:23:37;;;;;;;10.55;9.50;;;18.60;99.90;;;;;;6097336;23;20391;-89
2023/08/30 09:26:04;;;;;;;10.20;9.20;;;18.70;99.90;;;;;;6122454;23;20430;-90
2023/08/30 09:28:31;;;;;;;11.07;9.63;;;18.80;99.90;;;;;;6098297;23;20402;-89
2023/08/30 09:31:01;;;;;;;10.43;9.33;;;18.70;99.90;;;;;;6120753;23;20430;-90
2023/08/30 09:33:33;;;;;;;10.07;9.07;;;18.70;99.90;;;;;;6122938;23;20724;-90
2023/08/30 09:36:00;;;;;;;9.70;8.70;;;18.90;99.90;;;;;;6120869;23;20392;-90
2023/08/30 09:38:26;;;;;;;8.82;7.85;;;18.60;99.90;;;;;;6122823;23;20469;-90
2023/08/30 09:41:05;;;;;;;8.18;7.10;;;18.50;99.90;;;;;;6121149;23;20899;-89
2023/08/30 09:43:34;;;;;;;8.25;7.18;;;18.50;99.90;;;;;;6096729;23;20417;-89
2023/08/30 09:46:06;;;;;;;8.23;7.43;;;18.40;99.90;;;;;;6122701;23;20383;-89
2023/08/30 09:48:32;;;;;;;7.80;7.00;;;18.00;99.90;;;;;;6096273;23;20397;-90
2023/08/30 09:51:01;;;;;;;7.60;6.88;;;18.20;99.90;;;;;;6098305;23;20744;-89
2023/08/30 09:53:29;;;;;;;8.15;7.32;;;17.70;99.90;;;;;;6096134;23;20367;-89
2023/08/30 09:55:56;;;;;;;8.15;7.35;;;17.70;99.90;;;;;;6098069;23;20379;-89
2023/08/30 09:58:22;;;;;;;8.20;6.78;;;17.70;99.90;;;;;;6097489;23;20399;-89
2023/08/30 10:00:48;;;;;;;6.20;5.60;;;18.10;99.90;;;;;;6097149;23;20836;-89
2023/08/30 10:03:18;;;;;;;5.82;5.22;;;18.50;99.90;;;;;;6098557;23;20375;-89
2023/08/30 10:05:45;;;;;;;6.32;5.28;;;17.70;99.90;;;;;;6120665;23;20390;-89
2023/08/30 10:08:13;;;;;;;6.72;5.90;;;18.10;99.90;;;;;;6122589;23;20716;-90
2023/08/30 10:10:39;;;;;;;6.33;5.67;;;17.90;99.90;;;;;;6096066;23;20379;-90
2023/08/30 10:13:06;;;;;;;7.43;6.65;;;17.60;99.90;;;;;;6123094;23;20692;-89
2023/08/30 10:15:35;;;;;;;6.95;6.10;;;17.70;99.90;;;;;;6096688;23;20407;-88
2023/08/30 10:18:02;;;;;;;8.20;6.57;;;17.30;99.90;;;;;;6097319;23;20382;-89
2023/08/30 10:20:28;;;;;;;7.68;6.85;;;17.60;99.90;;;;;;6122551;23;20426;-90
2023/08/30 10:22:57;;;;;;;8.52;6.88;;;18.10;99.90;;;;;;6120511;23;20379;-89
2023/08/30 10:25:27;;;;;;;8.40;7.60;;;17.80;99.90;;;;;;6097820;23;20371;-89
2023/08/30 10:27:53;;;;;;;7.82;7.00;;;17.80;99.90;;;;;;6120217;23;20402;-90
2023/08/30 10:30:21;;;;;;;9.00;7.72;;;17.60;99.90;;;;;;6098217;23;20371;-89
2023/08/30 10:32:47;;;;;;;9.88;8.88;;;17.50;99.90;;;;;;6096302;23;20841;-88
2023/08/30 10:35:14;;;;;;;10.43;9.20;;;18.20;99.90;;;;;;6121917;23;20374;-89
2023/08/30 10:37:40;;;;;;;12.65;10.98;;;17.50;99.90;;;;;;6121939;23;20371;-89
2023/08/30 10:40:07;;;;;;;13.60;12.20;;;17.20;99.90;;;;;;6115400;23;20475;-90
2023/08/30 10:42:33;;;;;;;13.85;12.45;;;17.20;99.90;;;;;;6117638;23;20377;-90
2023/08/30 10:45:02;;;;;;;14.63;13.13;;;17.40;99.90;;;;;;6091120;23;20433;-89
2023/08/30 10:47:29;;;;;;;13.80;12.23;;;17.30;99.90;;;;;;6093714;23;20883;-91
2023/08/30 10:49:56;;;;;;;15.00;13.32;;;17.70;99.90;;;;;;6092032;23;20369;-91
2023/08/30 10:52:22;;;;;;;15.23;13.63;;;17.30;99.90;;;;;;6093058;23;20474;-92
2023/08/30 10:54:50;;;;;;;15.38;13.68;;;17.30;99.90;;;;;;6093035;23;20380;-91
2023/08/30 10:57:19;;;;;;;13.35;12.05;;;17.50;99.90;;;;;;6091962;23;20381;-90
2023/08/30 11:00:04;;;;;;;13.75;12.45;;;17.50;99.90;;;;;;6094030;23;20464;-92
2023/08/30 11:02:31;;;;;;;12.68;11.38;;;17.20;99.90;;;;;;6091294;23;20407;-91
2023/08/30 11:04:58;;;;;;;11.30;10.10;;;17.20;99.90;;;;;;6093798;23;20369;-91
2023/08/30 11:07:28;;;;;;;13.07;11.70;;;17.40;99.90;;;;;;6091398;23;20460;-90
2023/08/30 11:09:53;;;;;;;11.40;10.23;;;17.30;99.90;;;;;;6093286;23;20683;-92
2023/08/30 11:12:22;;;;;;;13.85;12.55;;;17.30;99.90;;;;;;6093267;23;20383;-90
2023/08/30 11:14:48;;;;;;;13.85;12.40;;;17.60;99.90;;;;;;6091310;23;20469;-90
2023/08/30 11:17:19;;;;;;;14.65;13.30;;;17.60;99.90;;;;;;6117710;23;20615;-91
2023/08/30 11:19:45;;;;;;;12.67;11.30;;;17.60;99.90;;;;;;6092749;23;20373;-91
2023/08/30 11:22:16;;;;;;;14.80;13.40;;;17.20;99.90;;;;;;6095375;23;20781;-91
2023/08/30 11:24:43;;;;;;;16.33;14.67;;;17.10;99.90;;;;;;6093916;23;20790;-91
2023/08/30 11:27:09;;;;;;;15.25;13.65;;;17.30;99.90;;;;;;6094752;23;20730;-92
2023/08/30 11:29:35;;;;;;;15.30;13.70;;;17.20;99.90;;;;;;6095656;23;20411;-92
2023/08/30 11:32:01;;;;;;;17.98;15.70;;;17.20;99.90;;;;;;6093434;23;20472;-92
2023/08/30 11:34:26;;;;;;;17.27;15.55;;;17.10;99.90;;;;;;6095577;23;20713;-93
2023/08/30 11:36:53;;;;;;;17.03;15.43;;;16.90;99.90;;;;;;6093548;23;20369;-92
2023/08/30 11:39:20;;;;;;;17.38;15.65;;;16.90;99.90;;;;;;6119700;23;20368;-93
2023/08/30 11:41:46;;;;;;;18.35;16.65;;;17.20;99.90;;;;;;6092693;23;20451;-93
2023/08/30 11:44:12;;;;;;;16.98;15.38;;;17.10;99.90;;;;;;6095800;23;20680;-92
2023/08/30 11:46:38;;;;;;;15.90;14.30;;;17.00;99.90;;;;;;6093610;23;20527;-92
2023/08/30 11:49:04;;;;;;;15.93;14.43;;;17.20;99.90;;;;;;6094489;23;20517;-92
2023/08/30 11:51:30;;;;;;;14.75;13.20;;;17.20;99.90;;;;;;6095801;23;20384;-93
2023/08/30 11:53:57;;;;;;;16.17;14.48;;;17.10;99.90;;;;;;6093261;23;20464;-92
2023/08/30 11:56:23;;;;;;;20.10;16.88;;;17.00;99.90;;;;;;6095574;23;20365;-92
2023/08/30 11:58:49;;;;;;;17.85;15.95;;;17.20;99.90;;;;;;6092965;23;20460;-92
2023/08/30 12:01:15;;;;;;;17.48;15.65;;;17.30;99.90;;;;;;6095069;23;20403;-92
2023/08/30 12:03:41;;;;;;;18.50;16.70;;;17.00;99.90;;;;;;6093136;23;20386;-92
2023/08/30 12:06:12;;;;;;;19.85;17.85;;;17.00;99.90;;;;;;6119385;23;20411;-93
2023/08/30 12:08:38;;;;;;;23.95;19.00;;;17.20;99.90;;;;;;6094748;23;20774;-92
2023/08/30 12:11:28;;;;;;;30.42;21.38;;;16.80;99.90;;;;;;6092488;23;20369;-95
2023/08/30 12:13:51;;;;;;;30.30;24.73;;;17.00;99.90;;;;;;6116666;23;20465;-95
2023/08/30 12:16:17;;;;;;;25.50;22.50;;;17.40;99.90;;;;;;6092344;23;20368;-95
2023/08/30 12:18:43;;;;;;;29.97;24.47;;;16.50;99.90;;;;;;6095313;23;20410;-95
2023/08/30 12:21:09;;;;;;;40.43;30.23;;;16.60;99.90;;;;;;6092976;23;20383;-94
2023/08/30 12:23:35;;;;;;;38.30;28.92;;;16.30;99.90;;;;;;6094758;23;20953;-94
2023/08/30 12:26:04;;;;;;;64.72;39.85;;;16.50;99.90;;;;;;6094440;23;20833;-94
2023/08/30 12:28:31;;;;;;;50.08;35.72;;;16.00;99.90;;;;;;6094335;23;20396;-94